.
WxDataArchive / Data Records for 2015-09-29
2015-09-28 September 2015 2015-09-30

Data Records for Tuesday, 29 September 2015

Time	Temp	Chill	HIndex	Humid	Dewpt	 Wind 	HiWind	WindDir	Rain 	Barom
-----	----	-----	------	-----	-----	------	------	-------	-----	-----
00:00	65.3	65.3	65.3	89	62.0	0	0	---	0.00	29.935 
00:05	65.3	65.3	65.3	89	62.0	0	0	---	0.00	29.935 
00:10	65.2	65.2	65.2	89	61.9	0	0	---	0.00	29.935 
00:15	65.2	65.2	65.2	89	61.9	0	0	---	0.00	29.936 
00:20	65.0	65.0	65.0	89	61.7	0	0	---	0.00	29.936 
00:25	64.8	64.8	64.8	89	61.5	0	0	---	0.00	29.936 
00:30	64.7	64.7	64.7	89	61.4	0	0	---	0.00	29.932 
00:35	64.7	64.7	64.7	90	61.7	0	0	---	0.00	29.932 
00:40	64.5	64.5	64.5	90	61.5	0	0	---	0.00	29.932 
00:45	64.3	64.3	64.3	90	61.3	0	0	---	0.00	29.931 
00:50	64.3	64.3	64.3	90	61.3	0	0	---	0.00	29.931 
00:55	64.2	64.2	64.2	90	61.2	0	0	---	0.00	29.931 
01:00	64.0	64.0	64.0	91	61.3	0	0	---	0.00	29.928 
01:05	64.0	64.0	64.0	91	61.3	0	0	---	0.00	29.928 
01:10	63.9	63.9	63.9	91	61.2	0	0	---	0.00	29.928 
01:15	63.9	63.9	63.9	91	61.2	0	0	---	0.00	29.929 
01:20	63.7	63.7	63.7	91	61.0	0	0	---	0.00	29.929 
01:25	63.5	63.5	63.5	91	60.8	0	0	---	0.00	29.929 
01:30	63.5	63.5	63.5	91	60.8	0	0	---	0.00	29.922 
01:35	63.4	63.4	63.4	91	60.7	0	0	---	0.00	29.922 
01:40	63.4	63.4	63.4	92	61.0	0	0	---	0.00	29.922 
01:45	63.4	63.4	63.4	92	61.0	0	0	---	0.00	29.922 
01:50	63.4	63.4	63.4	92	61.0	0	0	---	0.00	29.922 
01:55	63.2	63.2	63.2	92	60.8	0	0	---	0.00	29.922 
02:00	63.2	63.2	63.2	92	60.8	0	0	---	0.00	29.922 
02:05	63.2	63.2	63.2	92	60.8	0	0	---	0.00	29.922 
02:10	63.2	63.2	63.2	92	60.8	0	0	---	0.00	29.922 
02:15	63.2	63.2	63.2	92	60.8	0	0	---	0.00	29.921 
02:20	63.2	63.2	63.2	92	60.8	0	0	---	0.00	29.921 
02:25	63.2	63.2	63.2	92	60.8	0	0	---	0.00	29.921 
02:30	63.2	63.2	63.2	92	60.8	0	0	---	0.00	29.919 
02:35	63.2	63.2	63.2	92	60.8	0	0	---	0.00	29.919 
02:40	63.2	63.2	63.2	92	60.8	0	0	---	0.00	29.919 
02:45	63.2	63.2	63.2	92	60.8	0	0	---	0.00	29.911 
02:50	63.2	63.2	63.2	92	60.8	0	0	---	0.00	29.911 
02:55	63.2	63.2	63.2	92	60.8	0	0	---	0.00	29.911 
03:00	63.2	63.2	63.2	93	61.1	0	0	---	0.00	29.911 
03:05	63.2	63.2	63.2	93	61.1	0	0	---	0.00	29.911 
03:10	63.2	63.2	63.2	93	61.1	0	0	---	0.00	29.911 
03:15	63.4	63.4	63.4	93	61.3	0	0	---	0.00	29.907 
03:20	63.4	63.4	63.4	93	61.3	0	0	---	0.00	29.907 
03:25	63.4	63.4	63.4	93	61.3	0	0	---	0.00	29.907 
03:30	63.4	63.4	63.4	93	61.3	0	0	---	0.00	29.899 
03:35	63.4	63.4	63.4	93	61.3	0	0	---	0.00	29.899 
03:40	63.4	63.4	63.4	93	61.3	0	0	---	0.00	29.899 
03:45	63.5	63.5	63.5	93	61.4	0	0	---	0.00	29.895 
03:50	63.5	63.5	63.5	93	61.4	0	0	---	0.00	29.895 
03:55	63.5	63.5	63.5	93	61.4	0	0	---	0.00	29.895 
04:00	63.5	63.5	63.5	93	61.4	0	0	---	0.00	29.888 
04:05	63.7	63.7	63.7	93	61.6	0	0	---	0.00	29.888 
04:10	63.7	63.7	63.7	93	61.6	0	0	---	0.00	29.888 
04:15	63.7	63.7	63.7	93	61.6	0	0	---	0.00	29.886 
04:20	63.7	63.7	63.7	93	61.6	0	0	---	0.00	29.886 
04:25	63.7	63.7	63.7	93	61.6	0	0	---	0.00	29.886 
04:30	63.7	63.7	63.7	93	61.6	0	0	---	0.00	29.886 
04:35	63.7	63.7	63.7	93	61.6	0	0	---	0.00	29.886 
04:40	63.9	63.9	63.9	93	61.8	0	0	---	0.00	29.886 
04:45	63.9	63.9	63.9	93	61.8	0	0	---	0.00	29.881 
04:50	63.9	63.9	63.9	93	61.8	0	0	---	0.00	29.881 
04:55	64.0	64.0	64.0	93	61.9	0	0	---	0.00	29.881 
05:00	64.0	64.0	64.0	93	61.9	0	0	---	0.00	29.876 
05:05	64.0	64.0	64.0	93	61.9	0	0	---	0.00	29.876 
05:10	64.0	64.0	64.0	93	61.9	0	0	---	0.00	29.876 
05:15	64.2	64.2	64.2	93	62.1	0	0	---	0.00	29.878 
05:20	64.2	64.2	64.2	93	62.1	0	0	---	0.00	29.878 
05:25	64.3	64.3	64.3	93	62.2	0	0	---	0.00	29.878 
05:30	64.3	64.3	64.3	93	62.2	0	0	---	0.00	29.881 
05:35	64.3	64.3	64.3	94	62.5	0	0	---	0.00	29.881 
05:40	64.3	64.3	64.3	94	62.5	0	0	---	0.00	29.881 
05:45	64.5	64.5	64.5	94	62.7	0	0	---	0.00	29.878 
05:50	64.5	64.5	64.5	94	62.7	0	0	---	0.00	29.878 
05:55	64.5	64.5	64.5	94	62.7	0	0	---	0.00	29.878 
06:00	64.5	64.5	64.5	94	62.7	0	0	---	0.00	29.879 
06:05	64.5	64.5	64.5	94	62.7	0	0	---	0.00	29.879 
06:10	64.5	64.5	64.5	94	62.7	0	0	---	0.00	29.879 
06:15	64.3	64.3	64.3	94	62.5	0	0	---	0.00	29.885 
06:20	64.3	64.3	64.3	94	62.5	0	1	292	0.00	29.885 
06:25	64.5	64.5	64.5	94	62.7	0	1	292	0.00	29.885 
06:30	64.5	64.5	64.5	94	62.7	0	0	---	0.00	29.883 
06:35	64.7	64.7	64.7	94	62.9	0	0	---	0.00	29.883 
06:40	64.7	64.7	64.7	94	62.9	0	0	---	0.00	29.883 
06:45	64.7	64.7	64.7	94	62.9	0	0	---	0.00	29.888 
06:50	64.7	64.7	64.7	94	62.9	0	0	---	0.00	29.888 
06:55	64.7	64.7	64.7	94	62.9	0	0	---	0.00	29.888 
07:00	64.7	64.7	64.7	94	62.9	0	0	---	0.00	29.889 
07:05	64.7	64.7	64.7	94	62.9	0	0	---	0.00	29.889 
07:10	64.7	64.7	64.7	94	62.9	0	0	---	0.00	29.889 
07:15	64.7	64.7	64.7	94	62.9	0	0	---	0.00	29.893 
07:20	64.7	64.7	64.7	94	62.9	0	0	---	0.00	29.893 
07:25	64.7	64.7	64.7	94	62.9	0	0	---	0.00	29.893 
07:30	64.7	64.7	64.7	94	62.9	0	0	---	0.00	29.892 
07:35	64.7	64.7	64.7	94	62.9	0	0	---	0.00	29.892 
07:40	64.5	64.5	64.5	94	62.7	0	0	---	0.00	29.892 
07:45	64.5	64.5	64.5	94	62.7	0	0	---	0.00	29.891 
07:50	64.5	64.5	64.5	94	62.7	0	0	---	0.00	29.891 
07:55	64.5	64.5	64.5	94	62.7	0	0	---	0.00	29.891 
08:00	64.5	64.5	64.5	94	62.7	0	0	---	0.00	29.893 
08:05	64.5	64.5	64.5	94	62.7	0	0	---	0.00	29.893 
08:10	64.5	64.5	64.5	94	62.7	0	0	---	0.00	29.893 
08:15	64.5	64.5	64.5	94	62.7	0	0	---	0.00	29.895 
08:20	64.5	64.5	64.5	94	62.7	0	0	---	0.00	29.895 
08:25	64.7	64.7	64.7	94	62.9	0	0	---	0.00	29.895 
08:30	64.7	64.7	64.7	94	62.9	0	0	---	0.00	29.896 
08:35	64.7	64.7	64.7	94	62.9	0	0	---	0.00	29.896 
08:40	64.7	64.7	64.7	94	62.9	0	0	---	0.00	29.896 
08:45	64.8	64.8	64.8	94	63.0	0	0	---	0.00	29.899 
08:50	64.8	64.8	64.8	94	63.0	0	0	---	0.00	29.899 
08:55	65.0	65.0	65.0	94	63.2	0	0	---	0.00	29.899 
09:00	65.2	65.2	65.2	94	63.4	0	0	---	0.00	29.902 
09:05	65.5	65.5	65.5	94	63.7	0	0	---	0.00	29.902 
09:10	65.5	65.5	65.5	94	63.7	0	0	---	0.00	29.902 
09:15	65.6	65.6	65.6	94	63.8	0	0	---	0.00	29.902 
09:20	65.8	65.8	65.8	94	64.0	0	0	---	0.00	29.902 
09:25	66.1	66.1	66.1	94	64.3	0	0	---	0.00	29.902 
09:30	66.4	66.4	66.4	94	64.6	0	0	---	0.00	29.909 
09:35	66.8	66.8	66.8	94	65.0	0	0	---	0.00	29.909 
09:40	67.1	67.1	67.1	94	65.3	0	0	---	0.00	29.909 
09:45	67.4	67.4	67.4	94	65.6	0	0	---	0.00	29.909 
09:50	67.6	67.6	67.6	93	65.5	0	0	---	0.00	29.909 
09:55	67.9	67.9	67.9	93	65.8	0	0	---	0.00	29.909 
10:00	68.3	68.3	68.3	92	65.9	0	0	---	0.00	29.911 
10:05	68.4	68.4	68.4	92	66.0	0	0	---	0.00	29.911 
10:10	68.6	68.6	68.6	91	65.9	0	0	---	0.00	29.911 
10:15	68.9	68.9	68.9	90	65.8	0	2	292	0.00	29.912 
10:20	69.3	69.3	69.3	89	65.9	0	2	292	0.00	29.912 
10:25	69.4	69.4	69.4	88	65.7	0	0	---	0.00	29.912 
10:30	69.8	69.8	69.8	87	65.7	0	1	292	0.00	29.910 
10:35	69.9	69.9	69.9	86	65.5	0	1	292	0.00	29.910 
10:40	69.9	69.9	69.9	85	65.2	0	0	---	0.00	29.910 
10:45	70.1	70.1	70.1	85	65.4	0	1	292	0.00	29.912 
10:50	70.1	70.1	70.1	84	65.0	0	1	292	0.00	29.912 
10:55	70.1	70.1	70.1	84	65.0	0	1	292	0.00	29.912 
11:00	70.3	70.3	70.3	83	64.9	0	1	292	0.00	29.913 
11:05	70.3	70.3	70.3	83	64.9	0	1	292	0.00	29.913 
11:10	70.4	70.4	70.4	82	64.6	0	0	---	0.00	29.913 
11:15	70.6	70.6	70.6	81	64.5	0	0	---	0.00	29.914 
11:20	70.6	70.6	70.6	81	64.5	0	1	292	0.00	29.914 
11:25	70.8	70.8	70.8	82	65.0	0	1	292	0.00	29.914 
11:30	70.9	70.9	70.9	82	65.1	0	0	---	0.00	29.911 
11:35	70.9	70.9	70.9	82	65.1	0	0	---	0.00	29.911 
11:40	70.9	70.9	70.9	82	65.1	0	0	---	0.00	29.911 
11:45	70.9	70.9	70.9	82	65.1	0	0	---	0.00	29.914 
11:50	70.8	70.8	70.8	83	65.4	0	0	---	0.00	29.914 
11:55	70.6	70.6	70.6	84	65.5	0	0	---	0.01	29.914 
12:00	70.4	70.4	70.4	85	65.7	0	0	---	0.00	29.912 
12:05	70.3	70.3	70.3	85	65.6	0	0	---	0.00	29.912 
12:10	70.3	70.3	70.3	86	65.9	0	0	---	0.00	29.912 
12:15	70.1	70.1	70.1	86	65.7	0	1	292	0.00	29.910 
12:20	70.1	70.1	70.1	86	65.7	0	0	---	0.00	29.910 
12:25	70.1	70.1	70.1	86	65.7	0	0	---	0.00	29.910 
12:30	70.3	70.3	70.3	86	65.9	0	2	292	0.00	29.912 
12:35	70.3	70.3	70.3	86	65.9	0	0	---	0.00	29.912 
12:40	70.3	70.3	70.3	86	65.9	0	0	---	0.00	29.912 
12:45	70.4	70.4	70.4	86	66.0	0	1	292	0.00	29.909 
12:50	70.4	70.4	70.4	86	66.0	0	1	292	0.00	29.909 
12:55	70.6	70.6	70.6	86	66.2	0	0	---	0.00	29.909 
13:00	70.6	70.6	70.6	86	66.2	0	1	292	0.00	29.909 
13:05	70.6	70.6	70.6	86	66.2	0	1	292	0.00	29.909 
13:10	70.6	70.6	70.6	86	66.2	0	2	292	0.00	29.909 
13:15	70.6	70.6	70.6	86	66.2	0	2	292	0.00	29.908 
13:20	70.8	70.8	70.8	86	66.4	0	1	292	0.00	29.908 
13:25	70.8	70.8	70.8	86	66.4	0	1	292	0.00	29.908 
13:30	70.8	70.8	70.8	85	66.1	0	2	292	0.00	29.901 
13:35	70.8	70.8	70.8	85	66.1	0	1	292	0.00	29.901 
13:40	70.8	70.8	70.8	85	66.1	0	1	292	0.00	29.901 
13:45	70.9	70.9	70.9	85	66.2	0	1	292	0.00	29.899 
13:50	70.9	70.9	70.9	85	66.2	0	2	292	0.00	29.899 
13:55	71.1	71.1	71.1	85	66.4	0	3	292	0.00	29.899 
14:00	71.1	71.1	71.1	86	66.7	0	1	292	0.00	29.897 
14:05	71.3	71.3	71.3	85	66.5	0	1	292	0.00	29.897 
14:10	71.3	71.3	71.3	85	66.5	0	2	292	0.00	29.897 
14:15	71.5	71.5	71.5	85	66.7	0	1	292	0.00	29.891 
14:20	71.5	71.5	71.5	84	66.4	0	1	292	0.00	29.891 
14:25	71.6	71.6	71.6	83	66.2	0	1	292	0.00	29.891 
14:30	71.8	71.8	71.8	84	66.7	0	4	292	0.00	29.880 
14:35	72.1	72.1	72.1	83	66.6	0	4	0	0.00	29.880 
14:40	72.3	72.3	72.3	83	66.8	0	1	0	0.00	29.880 
14:45	72.5	72.5	72.5	81	66.3	0	4	45	0.00	29.870 
14:50	72.3	72.3	72.3	80	65.8	1	4	68	0.00	29.870 
14:55	72.5	72.5	72.5	81	66.3	0	2	90	0.00	29.870 
15:00	72.8	72.8	72.8	81	66.6	0	2	90	0.00	29.868 
15:05	73.0	73.0	73.0	79	66.1	1	3	90	0.00	29.868 
15:10	73.3	73.3	73.3	79	66.4	0	3	90	0.00	29.868 
15:15	73.3	73.3	73.3	77	65.6	0	3	90	0.00	29.865 
15:20	73.3	73.3	73.3	77	65.6	0	2	90	0.00	29.865 
15:25	73.3	73.3	73.3	77	65.6	0	3	90	0.00	29.865 
15:30	73.2	73.2	73.2	78	65.9	0	2	90	0.00	29.864 
15:35	73.2	73.2	73.2	78	65.9	0	3	90	0.00	29.864 
15:40	73.0	73.0	73.0	78	65.7	1	6	90	0.00	29.864 
15:45	73.0	73.0	73.0	79	66.1	0	2	90	0.00	29.861 
15:50	73.0	73.0	73.0	79	66.1	0	2	90	0.00	29.861 
15:55	73.0	73.0	73.0	78	65.7	1	4	90	0.00	29.861 
16:00	72.8	72.8	72.8	79	65.9	0	2	90	0.00	29.864 
16:05	72.7	72.7	72.7	79	65.8	0	3	90	0.00	29.864 
16:10	72.7	72.7	72.7	79	65.8	0	2	90	0.00	29.864 
16:15	71.8	71.8	71.8	77	64.2	2	6	338	0.00	29.871 
16:20	70.3	70.3	70.3	79	63.5	3	6	315	0.00	29.871 
16:25	69.3	69.3	69.3	82	63.6	1	6	338	0.00	29.871 
16:30	68.4	68.4	68.4	84	63.4	2	6	292	0.00	29.878 
16:35	67.8	67.8	67.8	86	63.5	1	5	292	0.00	29.878 
16:40	67.4	67.4	67.4	87	63.4	1	7	292	0.00	29.878 
16:45	67.1	67.1	67.1	88	63.4	0	2	135	0.00	29.883 
16:50	66.6	66.6	66.6	87	62.6	1	6	338	0.00	29.883 
16:55	66.4	66.4	66.4	88	62.7	1	4	112	0.00	29.883 
17:00	66.1	66.1	66.1	88	62.4	1	6	292	0.01	29.877 
17:05	66.0	66.0	66.0	89	62.7	1	4	135	0.00	29.877 
17:10	65.8	65.8	65.8	89	62.5	0	2	112	0.00	29.877 
17:15	65.6	65.6	65.6	90	62.6	1	4	112	0.00	29.886 
17:20	65.5	65.5	65.5	90	62.5	1	3	68	0.00	29.886 
17:25	65.5	65.5	65.5	90	62.5	1	4	112	0.00	29.886 
17:30	65.5	65.5	65.5	91	62.8	0	1	112	0.00	29.891 
17:35	65.3	65.3	65.3	91	62.6	1	4	112	0.00	29.891 
17:40	65.2	65.2	65.2	91	62.5	1	6	135	0.00	29.891 
17:45	65.0	65.0	65.0	90	62.0	1	7	45	0.00	29.897 
17:50	65.0	65.0	65.0	90	62.0	1	5	90	0.00	29.897 
17:55	64.8	64.8	64.8	90	61.8	1	6	90	0.00	29.897 
18:00	64.8	64.8	64.8	90	61.8	1	7	90	0.00	29.897 
18:05	64.8	64.8	64.8	90	61.8	2	9	90	0.00	29.897 
18:10	64.5	64.5	64.5	90	61.5	1	6	68	0.00	29.897 
18:15	64.5	64.5	64.5	90	61.5	0	3	68	0.00	29.897 
18:20	64.3	64.3	64.3	90	61.3	0	4	112	0.00	29.897 
18:25	64.2	64.2	64.2	89	60.9	1	5	135	0.00	29.897 
18:30	64.0	64.0	64.0	89	60.7	1	4	90	0.00	29.904 
18:35	63.9	63.9	63.9	89	60.6	0	4	90	0.00	29.904 
18:40	63.9	63.9	63.9	89	60.6	1	7	90	0.00	29.904 
18:45	63.9	63.9	63.9	88	60.3	1	4	135	0.00	29.903 
18:50	63.9	63.9	63.9	88	60.3	1	6	135	0.00	29.903 
18:55	63.9	63.9	63.9	88	60.3	1	5	112	0.00	29.903 
19:00	63.9	63.9	63.9	87	59.9	2	7	112	0.00	29.910 
19:05	64.0	64.0	64.0	87	60.0	2	7	112	0.00	29.910 
19:10	64.0	64.0	64.0	87	60.0	1	4	112	0.00	29.910 
19:15	64.0	64.0	64.0	87	60.0	1	6	90	0.00	29.909 
19:20	64.2	64.2	64.2	87	60.2	1	4	112	0.00	29.909 
19:25	64.2	64.2	64.2	87	60.2	1	3	112	0.00	29.909 
19:30	64.2	64.2	64.2	87	60.2	0	3	112	0.00	29.913 
19:35	64.2	64.2	64.2	87	60.2	1	6	112	0.00	29.913 
19:40	64.2	64.2	64.2	87	60.2	1	5	112	0.00	29.913 
19:45	64.3	64.3	64.3	87	60.3	1	6	135	0.00	29.917 
19:50	64.0	64.0	64.0	86	59.7	1	6	0	0.00	29.917 
19:55	64.0	64.0	64.0	86	59.7	0	2	315	0.00	29.917 
20:00	63.9	63.9	63.9	85	59.3	1	5	90	0.00	29.929 
20:05	63.9	63.9	63.9	84	59.0	1	3	68	0.00	29.929 
20:10	63.9	63.9	63.9	84	59.0	1	4	112	0.00	29.929 
20:15	63.9	63.9	63.9	84	59.0	1	6	112	0.00	29.932 
20:20	63.9	63.9	63.9	84	59.0	0	2	112	0.00	29.932 
20:25	63.7	63.7	63.7	83	58.4	1	4	112	0.00	29.932 
20:30	63.7	63.7	63.7	83	58.4	1	5	68	0.00	29.931 
20:35	63.7	63.7	63.7	83	58.4	0	3	135	0.00	29.931 
20:40	63.7	63.7	63.7	83	58.4	1	4	112	0.00	29.931 
20:45	63.7	63.7	63.7	83	58.4	1	4	112	0.00	29.934 
20:50	63.7	63.7	63.7	82	58.1	1	5	135	0.00	29.934 
20:55	63.7	63.7	63.7	82	58.1	1	5	135	0.00	29.934 
21:00	63.7	63.7	63.7	82	58.1	0	4	112	0.00	29.940 
21:05	63.5	63.5	63.5	82	57.9	1	4	248	0.00	29.940 
21:10	63.2	63.2	63.2	78	56.2	2	9	292	0.00	29.940 
21:15	63.1	63.1	63.1	76	55.4	2	7	112	0.00	29.946 
21:20	62.9	62.9	62.9	75	54.8	1	5	315	0.00	29.946 
21:25	62.7	62.7	62.7	72	53.5	2	10	112	0.00	29.946 
21:30	62.6	62.6	62.6	70	52.7	1	4	45	0.00	29.954 
21:35	62.6	62.6	62.6	70	52.7	2	5	68	0.00	29.954 
21:40	62.6	62.6	62.6	70	52.7	1	6	135	0.00	29.954 
21:45	62.6	62.6	62.6	69	52.3	1	6	68	0.00	29.951 
21:50	62.6	62.6	62.6	68	51.9	1	4	90	0.00	29.951 
21:55	62.6	62.6	62.6	69	52.3	1	5	90	0.00	29.951 
22:00	62.6	62.6	62.6	69	52.3	0	4	90	0.00	29.963 
22:05	62.6	62.6	62.6	69	52.3	1	5	135	0.00	29.963 
22:10	62.4	62.4	62.4	69	52.1	1	6	90	0.00	29.963 
22:15	62.4	62.4	62.4	69	52.1	0	3	90	0.00	29.962 
22:20	62.3	62.3	62.3	69	52.0	1	6	112	0.00	29.962 
22:25	62.1	62.1	62.1	70	52.2	0	2	112	0.00	29.962 
22:30	62.1	62.1	62.1	70	52.2	1	4	22	0.00	29.969 
22:35	62.0	62.0	62.0	71	52.5	1	5	0	0.00	29.969 
22:40	61.8	61.8	61.8	71	52.3	1	3	68	0.00	29.969 
22:45	61.8	61.8	61.8	72	52.7	0	5	248	0.00	29.976 
22:50	61.6	61.6	61.6	72	52.5	1	10	112	0.00	29.976 
22:55	61.5	61.5	61.5	73	52.8	1	5	315	0.00	29.976 
23:00	61.5	61.5	61.5	73	52.8	1	5	90	0.00	29.978 
23:05	61.3	61.3	61.3	74	52.9	1	7	315	0.00	29.978 
23:10	61.2	61.2	61.2	74	52.8	1	7	90	0.00	29.978 
23:15	61.0	61.0	61.0	75	53.0	1	7	90	0.00	29.980 
23:20	60.9	60.9	60.9	75	52.9	1	6	338	0.00	29.980 
23:25	60.9	60.9	60.9	76	53.3	1	7	90	0.00	29.980 
23:30	60.7	60.7	60.7	76	53.1	2	10	112	0.00	29.983 
23:35	60.5	60.5	60.5	76	52.9	1	4	158	0.00	29.983 
23:40	60.4	60.4	60.4	76	52.8	1	4	225	0.00	29.983 
23:45	60.2	60.2	60.2	77	53.0	1	3	90	0.00	29.983 
23:50	60.1	60.1	60.1	76	52.5	1	4	135	0.00	29.983 
23:55	59.9	59.9	59.9	76	52.3	0	4	112	0.00	29.983 

CoCoRaHS
IN-AL-39
A2 Web Hosting
Creative Commons License
GoDaddy
search engine by freefind advanced

loaded 2018-11-17 14:16:23 • last modified 2010-11-18 10:43:29
Privacy PolicyDisclaimer
• wx.awcolley.com is powered by PmWiki v.2002016 •
• all content (unless otherwise noted) © 2018 A W Colley